Time;durP1;ratioP1;P1;durP2;ratioP2;P2;SDS_P1;SDS_P2;PMS_P1;PMS_P2;Temp;Humidity;BMP_temperature;BMP_pressure;BME280_temperature;BME280_humidity;BME280_pressure;Samples;Min_cycle;Max_cycle;Signal;HPM_P1;HPM_P2
2023/10/22 00:00:11;;;;;;;3.50;1.50;;;;;;;8.10;100.00;95809.53;5019397;28;20049;-68
2023/10/22 00:02:37;;;;;;;1.52;1.05;;;;;;;8.08;100.00;95815.34;5023556;28;20081;-70
2023/10/22 00:05:04;;;;;;;9.10;5.72;;;;;;;8.17;100.00;95812.34;5019750;28;20033;-68
2023/10/22 00:07:30;;;;;;;3.63;1.40;;;;;;;8.12;100.00;95809.94;5023423;28;20037;-69
2023/10/22 00:09:55;;;;;;;2.65;1.60;;;;;;;8.13;100.00;95808.81;5032302;28;20392;-69
2023/10/22 00:12:21;;;;;;;2.33;1.42;;;;;;;8.13;100.00;95816.97;5026024;28;20056;-69
2023/10/22 00:14:47;;;;;;;2.05;1.30;;;;;;;8.12;100.00;95813.47;5026606;28;20045;-70
2023/10/22 00:17:12;;;;;;;1.60;1.20;;;;;;;8.16;100.00;95808.06;5025440;28;20057;-70
2023/10/22 00:19:37;;;;;;;5.47;1.65;;;;;;;8.19;100.00;95816.28;5024174;28;20064;-71
2023/10/22 00:22:03;;;;;;;2.67;1.60;;;;;;;8.24;100.00;95820.59;5034842;28;20061;-68
2023/10/22 00:24:29;;;;;;;2.85;1.75;;;;;;;8.24;100.00;95831.53;5036723;28;20041;-69
2023/10/22 00:26:54;;;;;;;3.25;2.05;;;;;;;8.20;100.00;95830.69;5023839;28;20038;-69
2023/10/22 00:29:19;;;;;;;3.15;1.33;;;;;;;8.15;100.00;95826.34;5018868;28;20033;-69
2023/10/22 00:31:45;;;;;;;3.33;1.23;;;;;;;8.08;100.00;95823.53;5023687;28;20037;-69
2023/10/22 00:34:10;;;;;;;5.07;1.17;;;;;;;8.06;100.00;95823.13;5018437;28;20045;-69
2023/10/22 00:36:35;;;;;;;3.20;1.20;;;;;;;8.07;100.00;95832.09;5021899;28;20148;-69
2023/10/22 00:39:01;;;;;;;1.35;1.10;;;;;;;8.11;100.00;95827.47;5022858;28;20042;-69
2023/10/22 00:41:27;;;;;;;2.25;0.95;;;;;;;8.07;100.00;95832.91;5018010;28;20068;-69
2023/10/22 00:43:52;;;;;;;6.53;1.50;;;;;;;8.07;100.00;95837.53;5022410;28;20064;-69
2023/10/22 00:46:21;;;;;;;2.08;1.20;;;;;;;8.06;100.00;95839.50;4999424;28;20492;-69
2023/10/22 00:48:47;;;;;;;4.25;1.50;;;;;;;8.07;100.00;95845.72;5030098;28;20048;-69
2023/10/22 00:51:13;;;;;;;2.47;1.77;;;;;;;8.09;100.00;95840.72;5016884;28;20428;-69
2023/10/22 00:53:40;;;;;;;2.10;1.38;;;;;;;8.12;100.00;95851.66;5021244;28;20034;-69
2023/10/22 00:56:05;;;;;;;1.33;1.10;;;;;;;8.21;100.00;95848.63;5000394;28;20041;-69
2023/10/22 00:58:34;;;;;;;5.00;1.40;;;;;;;8.19;100.00;95848.22;5021473;28;20052;-69
2023/10/22 01:01:05;;;;;;;1.77;1.20;;;;;;;8.16;100.00;95854.44;5005092;28;20107;-69
2023/10/22 01:03:31;;;;;;;4.43;1.20;;;;;;;8.22;100.00;95850.22;5021725;28;20396;-70
2023/10/22 01:05:56;;;;;;;6.22;2.85;;;;;;;8.26;100.00;95845.56;5021537;28;20033;-69
2023/10/22 01:08:22;;;;;;;3.15;1.20;;;;;;;8.30;100.00;95856.53;5024432;28;20049;-68
2023/10/22 01:10:47;;;;;;;1.48;1.00;;;;;;;8.29;100.00;95854.97;5037433;28;20044;-68
2023/10/22 01:13:14;;;;;;;3.55;1.10;;;;;;;8.22;100.00;95863.84;5022297;28;20033;-68
2023/10/22 01:15:39;;;;;;;1.40;1.10;;;;;;;8.22;100.00;95859.16;5025295;28;20068;-70
2023/10/22 01:18:05;;;;;;;1.52;1.00;;;;;;;8.29;100.00;95863.16;5032633;28;20480;-68
2023/10/22 01:20:31;;;;;;;2.08;1.02;;;;;;;8.16;100.00;95860.66;5023148;28;20556;-68
2023/10/22 01:22:56;;;;;;;1.67;1.20;;;;;;;8.10;100.00;95861.34;5022044;28;20037;-68
2023/10/22 01:25:21;;;;;;;2.67;1.10;;;;;;;8.07;100.00;95862.91;5024110;28;20627;-68
2023/10/22 01:27:47;;;;;;;2.30;1.00;;;;;;;8.06;100.00;95864.03;5022446;28;20048;-68
2023/10/22 01:30:13;;;;;;;3.00;1.08;;;;;;;8.05;100.00;95859.75;5025545;28;20048;-67
2023/10/22 01:32:38;;;;;;;4.03;1.05;;;;;;;8.03;100.00;95851.13;4999316;28;20489;-67
2023/10/22 01:35:04;;;;;;;5.18;1.30;;;;;;;8.03;100.00;95857.41;5008259;28;20100;-66
2023/10/22 01:37:29;;;;;;;1.48;0.82;;;;;;;7.97;100.00;95849.91;5021245;28;20048;-67
2023/10/22 01:39:57;;;;;;;1.67;1.20;;;;;;;7.98;100.00;95849.53;5023822;28;20037;-68
2023/10/22 01:42:23;;;;;;;2.83;0.90;;;;;;;8.01;100.00;95859.72;5036797;28;20425;-67
2023/10/22 01:44:48;;;;;;;1.83;0.90;;;;;;;8.04;100.00;95861.69;5022943;28;20493;-67
2023/10/22 01:47:13;;;;;;;2.03;1.10;;;;;;;8.01;100.00;95867.09;5016236;28;20120;-68
2023/10/22 01:49:39;;;;;;;2.47;0.93;;;;;;;7.95;100.00;95861.16;5003437;28;20072;-67
2023/10/22 01:52:05;;;;;;;5.80;0.80;;;;;;;7.89;100.00;95861.88;5015507;28;20044;-65
2023/10/22 01:54:30;;;;;;;1.20;0.90;;;;;;;7.85;100.00;95870.00;5021882;28;20068;-68
2023/10/22 01:56:56;;;;;;;2.92;0.98;;;;;;;7.88;100.00;95865.75;5038827;28;20091;-67
2023/10/22 01:59:22;;;;;;;1.83;1.00;;;;;;;7.82;100.00;95868.78;5035642;28;21298;-66
2023/10/22 02:01:47;;;;;;;1.95;0.98;;;;;;;7.71;100.00;95864.38;5029401;28;20499;-68
2023/10/22 02:04:13;;;;;;;1.00;0.90;;;;;;;7.64;100.00;95867.78;5017487;28;20033;-67
2023/10/22 02:06:38;;;;;;;3.08;1.17;;;;;;;7.68;100.00;95873.28;5020132;28;20441;-68
2023/10/22 02:09:03;;;;;;;2.20;0.98;;;;;;;7.75;100.00;95860.53;5029858;28;20412;-68
2023/10/22 02:11:30;;;;;;;2.90;1.02;;;;;;;7.79;100.00;95872.25;5035083;28;20041;-68
2023/10/22 02:13:55;;;;;;;2.58;1.10;;;;;;;7.85;100.00;95880.91;5031197;28;20040;-68
2023/10/22 02:16:21;;;;;;;2.80;1.20;;;;;;;7.81;100.00;95877.34;5026822;28;20051;-67
2023/10/22 02:18:46;;;;;;;1.63;1.00;;;;;;;7.77;100.00;95873.78;5023075;28;20037;-67
2023/10/22 02:21:11;;;;;;;1.65;1.15;;;;;;;7.68;100.00;95884.94;5025636;28;20076;-68
2023/10/22 02:23:39;;;;;;;1.90;1.30;;;;;;;7.61;100.00;95893.03;5020252;28;20049;-67
2023/10/22 02:26:05;;;;;;;1.23;1.13;;;;;;;7.53;100.00;95897.59;5024906;28;20057;-67
2023/10/22 02:28:31;;;;;;;1.63;1.40;;;;;;;7.49;100.00;95898.69;5039285;28;20041;-67
2023/10/22 02:30:56;;;;;;;1.70;1.33;;;;;;;7.43;100.00;95893.53;5030231;28;20071;-68
2023/10/22 02:33:22;;;;;;;1.77;1.30;;;;;;;7.38;100.00;95891.13;5016812;28;20868;-68
2023/10/22 02:35:47;;;;;;;2.00;1.13;;;;;;;7.37;100.00;95895.00;5021217;28;20037;-67
2023/10/22 02:38:15;;;;;;;2.30;1.60;;;;;;;7.38;100.00;95890.34;5016029;28;20095;-68
2023/10/22 02:40:42;;;;;;;2.17;1.50;;;;;;;7.36;100.00;95898.09;5020387;28;20038;-67
2023/10/22 02:43:08;;;;;;;3.70;1.30;;;;;;;7.35;100.00;95891.88;5016310;28;20392;-68
2023/10/22 02:45:33;;;;;;;1.70;1.23;;;;;;;7.34;100.00;95897.66;5021048;28;20044;-67
2023/10/22 02:47:59;;;;;;;3.00;1.40;;;;;;;7.35;100.00;95902.75;5020749;28;20044;-67
2023/10/22 02:50:26;;;;;;;1.95;1.20;;;;;;;7.28;100.00;95908.88;5015250;28;20053;-68
2023/10/22 02:52:55;;;;;;;2.53;1.70;;;;;;;7.10;100.00;95907.00;5020079;28;20123;-68
2023/10/22 02:55:20;;;;;;;2.08;1.52;;;;;;;7.09;100.00;95906.22;5017156;28;20137;-69
2023/10/22 02:57:47;;;;;;;1.77;1.42;;;;;;;7.11;100.00;95908.56;5020245;28;20128;-68
2023/10/22 03:00:14;;;;;;;4.47;1.60;;;;;;;7.08;100.00;95912.81;5016138;28;20044;-68
2023/10/22 03:02:40;;;;;;;3.90;1.45;;;;;;;7.02;100.00;95925.16;5028782;28;20136;-68
2023/10/22 03:05:06;;;;;;;4.40;1.60;;;;;;;6.91;100.00;95921.44;5019392;28;20124;-67
2023/10/22 03:07:32;;;;;;;3.00;1.95;;;;;;;6.93;100.00;95924.59;5024661;28;20076;-67
2023/10/22 03:09:57;;;;;;;2.80;1.40;;;;;;;6.70;100.00;95928.88;5019922;28;20404;-67
2023/10/22 03:12:23;;;;;;;3.78;1.65;;;;;;;6.60;100.00;95928.66;5015285;28;20475;-67
2023/10/22 03:14:52;;;;;;;5.85;1.48;;;;;;;6.61;100.00;95933.75;5021048;28;20048;-66
2023/10/22 03:17:18;;;;;;;2.30;1.65;;;;;;;6.55;100.00;95932.44;5016615;28;20409;-68
2023/10/22 03:19:44;;;;;;;3.47;1.40;;;;;;;6.66;100.00;95935.38;5021348;28;20061;-68
2023/10/22 03:22:09;;;;;;;2.10;1.40;;;;;;;6.58;100.00;95939.91;5023361;28;20037;-69
2023/10/22 03:24:35;;;;;;;1.50;1.20;;;;;;;6.36;100.00;95935.19;5020721;28;20164;-68
2023/10/22 03:27:04;;;;;;;5.82;1.40;;;;;;;6.11;100.00;95933.50;5039190;28;20488;-68
2023/10/22 03:29:30;;;;;;;3.17;1.42;;;;;;;5.97;100.00;95935.16;5027495;28;20090;-68
2023/10/22 03:31:56;;;;;;;2.17;1.50;;;;;;;5.93;100.00;95940.47;5022594;28;20049;-68
2023/10/22 03:34:21;;;;;;;2.22;1.50;;;;;;;6.00;100.00;95937.16;5019298;28;21379;-68
2023/10/22 03:36:46;;;;;;;1.63;1.30;;;;;;;6.13;100.00;95942.09;5022820;28;20041;-69
2023/10/22 03:39:13;;;;;;;2.50;1.77;;;;;;;6.17;100.00;95941.41;5018615;28;20081;-68
2023/10/22 03:41:39;;;;;;;2.17;1.60;;;;;;;6.22;100.00;95944.63;5031682;28;20036;-67
2023/10/22 03:44:05;;;;;;;2.42;1.60;;;;;;;6.26;100.00;95950.13;5027282;28;20087;-66
2023/10/22 03:46:30;;;;;;;2.20;1.75;;;;;;;6.06;100.00;95946.59;5006301;28;20072;-67
2023/10/22 03:48:57;;;;;;;2.30;1.80;;;;;;;5.98;100.00;95961.16;5023248;28;20038;-68
2023/10/22 03:51:22;;;;;;;1.77;1.52;;;;;;;6.10;100.00;95952.91;5026905;28;20053;-68
2023/10/22 03:53:48;;;;;;;2.13;1.52;;;;;;;6.13;100.00;95957.63;5023125;28;20052;-68
2023/10/22 03:56:14;;;;;;;1.80;1.50;;;;;;;6.11;100.00;95957.22;5018087;28;20041;-68
2023/10/22 03:58:40;;;;;;;3.47;1.70;;;;;;;6.11;100.00;95960.72;5024012;28;20071;-68
2023/10/22 04:01:06;;;;;;;1.85;1.52;;;;;;;6.09;100.00;95959.50;5018339;28;20052;-68
2023/10/22 04:03:31;;;;;;;1.35;1.15;;;;;;;6.07;100.00;95961.78;5022074;28;20049;-67
2023/10/22 04:05:57;;;;;;;1.63;1.38;;;;;;;6.06;100.00;95962.91;5021615;28;20069;-68
2023/10/22 04:08:24;;;;;;;1.45;1.20;;;;;;;6.03;100.00;95961.72;5018325;28;20041;-68
2023/10/22 04:10:49;;;;;;;1.50;1.30;;;;;;;5.98;100.00;95964.69;5022819;28;20083;-68
2023/10/22 04:13:16;;;;;;;1.35;1.00;;;;;;;5.88;100.00;95971.41;5018406;28;20103;-68
2023/10/22 04:15:42;;;;;;;0.85;0.85;;;;;;;5.86;100.00;95971.00;5022326;28;20476;-67
2023/10/22 04:18:07;;;;;;;0.90;0.90;;;;;;;5.80;100.00;95971.59;5017448;28;20056;-67
2023/10/22 04:20:33;;;;;;;1.52;1.25;;;;;;;5.79;100.00;95970.06;5004832;28;20038;-68
2023/10/22 04:22:59;;;;;;;1.30;1.10;;;;;;;5.80;100.00;95974.31;5023327;28;20037;-67
2023/10/22 04:25:25;;;;;;;1.33;1.17;;;;;;;5.78;100.00;95982.03;5018049;28;20045;-68
2023/10/22 04:27:50;;;;;;;10.27;1.52;;;;;;;5.77;100.00;95978.56;5032494;28;20056;-68
2023/10/22 04:30:15;;;;;;;1.73;1.40;;;;;;;5.70;100.00;95981.88;5035733;28;20045;-68
2023/10/22 04:32:41;;;;;;;1.42;1.33;;;;;;;5.64;100.00;95986.00;5009760;28;20395;-68
2023/10/22 04:35:07;;;;;;;1.90;1.25;;;;;;;5.65;100.00;95987.56;5019836;28;20385;-68
2023/10/22 04:37:33;;;;;;;1.92;1.25;;;;;;;5.62;100.00;96001.06;5026807;28;20046;-68
2023/10/22 04:39:58;;;;;;;3.00;1.38;;;;;;;5.66;100.00;95999.25;5029214;28;20451;-66
2023/10/22 04:42:24;;;;;;;1.70;1.40;;;;;;;5.68;100.00;96007.84;5031935;28;20037;-66
2023/10/22 04:44:49;;;;;;;1.67;1.40;;;;;;;5.71;100.00;96001.72;5040665;28;20052;-67
2023/10/22 04:47:16;;;;;;;1.83;1.63;;;;;;;5.70;100.00;96003.63;5023838;28;20114;-66
2023/10/22 04:49:43;;;;;;;4.88;1.75;;;;;;;5.73;100.00;96007.56;5031203;28;20044;-67
2023/10/22 04:52:10;;;;;;;3.58;1.70;;;;;;;5.63;100.00;96006.16;5017208;28;20564;-67
2023/10/22 04:54:36;;;;;;;2.50;1.77;;;;;;;5.61;100.00;96007.66;5022405;28;20408;-67
2023/10/22 04:57:03;;;;;;;2.60;1.67;;;;;;;5.64;100.00;96004.25;4998328;28;20108;-66
2023/10/22 04:59:28;;;;;;;1.73;1.42;;;;;;;5.52;100.00;96005.91;5027208;28;20076;-68
2023/10/22 05:01:54;;;;;;;2.30;1.80;;;;;;;5.29;100.00;96003.00;5040516;28;20122;-67
2023/10/22 05:04:19;;;;;;;2.28;1.50;;;;;;;5.26;100.00;96005.66;5031518;28;20064;-67
2023/10/22 05:06:45;;;;;;;2.40;1.65;;;;;;;5.34;100.00;96016.31;5032395;28;20496;-67
2023/10/22 05:09:10;;;;;;;1.88;1.60;;;;;;;5.30;100.00;96009.22;5030323;28;20033;-68
2023/10/22 05:11:35;;;;;;;2.55;1.58;;;;;;;5.31;100.00;96021.66;5022005;28;20041;-68
2023/10/22 05:14:01;;;;;;;4.05;1.70;;;;;;;5.31;100.00;96027.91;5021508;28;20499;-68
2023/10/22 05:16:29;;;;;;;2.70;1.77;;;;;;;5.33;100.00;96020.19;4999121;28;20045;-69
2023/10/22 05:18:54;;;;;;;5.72;2.70;;;;;;;5.38;100.00;96031.91;5021456;28;20045;-68
2023/10/22 05:21:20;;;;;;;3.33;1.70;;;;;;;5.40;100.00;96033.13;5017985;28;20129;-69
2023/10/22 05:23:46;;;;;;;2.42;1.70;;;;;;;5.42;100.00;96030.88;5022858;28;20417;-68
2023/10/22 05:26:12;;;;;;;2.88;2.00;;;;;;;5.43;100.00;96034.38;5016494;28;20037;-67
2023/10/22 05:28:39;;;;;;;3.58;1.60;;;;;;;5.40;100.00;96030.41;5022029;28;20107;-68
2023/10/22 05:31:13;;;;;;;2.00;1.65;;;;;;;5.20;100.00;96034.94;5016748;28;20049;-69
2023/10/22 05:33:39;;;;;;;3.08;1.63;;;;;;;5.14;100.00;96052.66;5020952;28;20045;-68
2023/10/22 05:36:04;;;;;;;2.90;1.88;;;;;;;5.15;100.00;96051.53;5017308;28;20377;-69
2023/10/22 05:38:30;;;;;;;2.55;1.92;;;;;;;5.06;100.00;96048.16;5021307;28;20052;-69
2023/10/22 05:40:55;;;;;;;2.75;1.70;;;;;;;5.15;100.00;96046.88;5021102;28;20038;-69
2023/10/22 05:43:20;;;;;;;4.53;2.00;;;;;;;5.10;100.00;96057.19;5017091;28;20378;-68
2023/10/22 05:45:55;;;;;;;2.42;1.70;;;;;;;5.02;100.00;96058.13;5020909;28;20048;-68
2023/10/22 05:48:20;;;;;;;2.85;1.90;;;;;;;5.08;100.00;96065.69;5016063;28;20145;-69
2023/10/22 05:50:46;;;;;;;2.95;1.90;;;;;;;5.38;100.00;96064.50;5019667;28;20128;-68
2023/10/22 05:53:11;;;;;;;2.78;1.77;;;;;;;5.43;100.00;96064.25;5019821;28;20063;-68
2023/10/22 05:55:36;;;;;;;2.72;1.90;;;;;;;5.46;100.00;96069.00;5025394;28;20106;-69
2023/10/22 05:58:02;;;;;;;2.88;2.13;;;;;;;5.41;100.00;96082.84;5022223;28;20500;-68
2023/10/22 06:00:27;;;;;;;4.90;3.08;;;;;;;5.12;100.00;96082.06;5001859;28;20370;-67
2023/10/22 06:02:53;;;;;;;4.97;3.60;;;;;;;4.69;100.00;96078.16;5028754;28;20038;-68
2023/10/22 06:05:18;;;;;;;4.60;3.00;;;;;;;4.55;100.00;96084.72;5024756;28;20416;-68
2023/10/22 06:07:45;;;;;;;33.70;18.85;;;;;;;4.55;100.00;96087.44;5020281;28;20110;-69
2023/10/22 06:10:11;;;;;;;17.98;10.60;;;;;;;4.70;100.00;96085.94;5016787;28;20049;-68
2023/10/22 06:12:36;;;;;;;7.40;4.18;;;;;;;4.90;100.00;96091.53;5028182;28;20459;-69
2023/10/22 06:15:03;;;;;;;4.38;3.00;;;;;;;5.06;100.00;96094.28;5019499;28;20050;-68
2023/10/22 06:17:32;;;;;;;7.47;5.68;;;;;;;5.00;100.00;96106.53;5003403;28;20099;-68
2023/10/22 06:19:57;;;;;;;9.85;3.97;;;;;;;5.22;100.00;96110.63;5020197;28;20033;-68
2023/10/22 06:22:23;;;;;;;5.65;3.55;;;;;;;5.35;100.00;96109.44;5016981;28;20558;-68
2023/10/22 06:24:48;;;;;;;4.60;3.28;;;;;;;5.37;100.00;96118.03;5032379;28;20045;-67
2023/10/22 06:27:13;;;;;;;6.00;4.95;;;;;;;5.20;100.00;96119.13;5023334;28;20384;-68
2023/10/22 06:29:39;;;;;;;4.07;3.38;;;;;;;5.34;100.00;96126.88;5024834;28;20463;-68
2023/10/22 06:32:05;;;;;;;4.55;3.15;;;;;;;5.51;100.00;96134.72;5016596;28;20045;-68
2023/10/22 06:34:30;;;;;;;4.80;3.28;;;;;;;5.31;100.00;96130.28;5020983;28;20124;-68
2023/10/22 06:36:56;;;;;;;5.13;3.85;;;;;;;5.32;100.00;96140.78;5029928;28;20041;-70
2023/10/22 06:39:21;;;;;;;5.10;3.53;;;;;;;5.27;100.00;96141.03;5028857;28;20056;-71
2023/10/22 06:41:47;;;;;;;5.38;3.75;;;;;;;5.34;100.00;96148.59;5034429;28;20041;-67
2023/10/22 06:44:12;;;;;;;7.07;3.22;;;;;;;5.60;100.00;96150.88;5017234;28;20034;-68
2023/10/22 06:46:37;;;;;;;5.78;3.28;;;;;;;5.85;100.00;96151.53;5021282;28;20049;-67
2023/10/22 06:49:03;;;;;;;5.35;3.10;;;;;;;5.95;100.00;96152.91;5018538;28;20044;-66
2023/10/22 06:51:29;;;;;;;8.60;3.50;;;;;;;6.05;100.00;96155.16;5026099;28;20397;-70
2023/10/22 06:53:55;;;;;;;7.63;4.20;;;;;;;6.16;100.00;96152.72;5023298;28;20045;-69
2023/10/22 06:56:20;;;;;;;6.10;3.42;;;;;;;6.23;100.00;96146.63;5016548;28;20033;-68
2023/10/22 06:58:46;;;;;;;5.93;3.60;;;;;;;6.32;100.00;96161.66;5021136;28;20073;-69
2023/10/22 07:01:13;;;;;;;7.82;3.03;;;;;;;6.46;100.00;96161.19;5017262;28;20034;-69
2023/10/22 07:03:45;;;;;;;4.78;3.00;;;;;;;6.67;100.00;96160.88;5024696;28;20407;-69
2023/10/22 07:06:11;;;;;;;6.13;2.80;;;;;;;6.93;100.00;96170.38;5011371;28;20037;-69
2023/10/22 07:08:37;;;;;;;7.45;2.70;;;;;;;7.13;100.00;96170.41;5024418;28;20563;-67
2023/10/22 07:11:03;;;;;;;3.40;2.45;;;;;;;7.20;100.00;96176.03;4995140;28;20128;-68
2023/10/22 07:13:29;;;;;;;7.43;3.22;;;;;;;7.23;100.00;96181.53;5031994;28;20072;-67
2023/10/22 07:15:55;;;;;;;5.35;3.40;;;;;;;7.27;100.00;96181.63;5024117;28;20049;-67
2023/10/22 07:18:22;;;;;;;10.63;6.30;;;;;;;7.21;100.00;96178.38;5018734;28;20072;-68
2023/10/22 07:20:48;;;;;;;14.38;9.55;;;;;;;7.14;100.00;96174.75;5024599;28;20100;-68
2023/10/22 07:23:13;;;;;;;26.05;15.40;;;;;;;7.03;100.00;96174.50;5017327;28;20051;-68
2023/10/22 07:25:39;;;;;;;10.52;7.78;;;;;;;7.03;100.00;96175.28;5034599;28;20046;-68
2023/10/22 07:28:05;;;;;;;13.60;8.95;;;;;;;7.07;100.00;96176.16;5019410;28;20052;-68
2023/10/22 07:30:31;;;;;;;11.40;7.57;;;;;;;7.19;100.00;96185.34;5026980;28;20088;-68
2023/10/22 07:32:57;;;;;;;8.15;5.30;;;;;;;7.34;100.00;96183.72;5025016;28;20052;-68
2023/10/22 07:35:22;;;;;;;7.45;3.92;;;;;;;7.46;100.00;96186.28;5032316;28;20052;-69
2023/10/22 07:37:48;;;;;;;6.05;3.67;;;;;;;7.76;100.00;96183.78;5043578;28;20504;-69
2023/10/22 07:40:15;;;;;;;4.25;2.67;;;;;;;8.11;100.00;96187.50;5026310;28;20045;-68
2023/10/22 07:42:41;;;;;;;3.45;2.30;;;;;;;8.37;100.00;96194.94;5040060;28;20064;-68
2023/10/22 07:45:08;;;;;;;5.32;2.15;;;;;;;8.55;100.00;96198.81;5027914;28;20046;-69
2023/10/22 07:47:35;;;;;;;7.35;2.15;;;;;;;8.57;100.00;96195.69;5024423;28;20191;-68
2023/10/22 07:50:01;;;;;;;3.83;2.42;;;;;;;8.45;100.00;96199.41;5023310;28;20041;-69
2023/10/22 07:52:26;;;;;;;4.88;3.70;;;;;;;8.19;100.00;96213.75;5024243;28;20552;-68
2023/10/22 07:54:52;;;;;;;3.65;3.00;;;;;;;8.58;100.00;96205.47;5042113;28;20127;-67
2023/10/22 07:57:18;;;;;;;3.55;2.70;;;;;;;8.90;100.00;96208.69;5022788;28;20389;-69
2023/10/22 07:59:44;;;;;;;4.65;3.47;;;;;;;8.91;100.00;96207.56;5031056;28;20424;-69
2023/10/22 08:02:10;;;;;;;7.13;4.53;;;;;;;8.88;100.00;96202.81;5034823;28;20029;-69
2023/10/22 08:04:37;;;;;;;5.75;4.32;;;;;;;8.50;100.00;96199.13;5029736;28;20523;-67
2023/10/22 08:07:03;;;;;;;8.38;5.53;;;;;;;8.66;100.00;96200.91;5022153;28;20428;-66
2023/10/22 08:09:29;;;;;;;6.30;5.28;;;;;;;8.84;100.00;96209.38;5005853;28;20041;-67
2023/10/22 08:11:54;;;;;;;9.65;5.05;;;;;;;8.98;100.00;96198.66;5022556;28;20045;-67
2023/10/22 08:14:20;;;;;;;10.38;5.50;;;;;;;8.77;100.00;96199.16;5016826;28;20392;-67
2023/10/22 08:16:45;;;;;;;18.02;10.25;;;;;;;8.48;100.00;96211.53;5004488;28;20052;-67
2023/10/22 08:19:10;;;;;;;9.85;6.50;;;;;;;8.80;100.00;96214.78;5011045;28;20068;-67
2023/10/22 08:21:36;;;;;;;11.45;8.20;;;;;;;9.01;100.00;96213.53;5023479;28;20095;-67
2023/10/22 08:24:01;;;;;;;5.10;3.78;;;;;;;9.41;100.00;96220.34;5022550;28;20081;-68
2023/10/22 08:26:27;;;;;;;12.70;11.40;;;;;;;9.29;100.00;96226.81;5019913;28;20434;-67
2023/10/22 08:28:52;;;;;;;6.15;4.05;;;;;;;9.10;100.00;96222.25;5023164;28;20097;-67
2023/10/22 08:31:18;;;;;;;10.55;5.00;;;;;;;8.75;100.00;96226.00;5024080;28;20071;-67
2023/10/22 08:33:43;;;;;;;10.63;6.00;;;;;;;8.94;100.00;96223.19;5039717;28;20030;-68
2023/10/22 08:36:09;;;;;;;6.47;4.47;;;;;;;8.84;100.00;96217.56;5032239;28;20037;-68
2023/10/22 08:38:34;;;;;;;7.43;4.55;;;;;;;9.08;100.00;96214.44;5021558;28;20112;-68
2023/10/22 08:41:06;;;;;;;5.13;3.90;;;;;;;9.37;100.00;96223.03;5022876;28;20103;-68
2023/10/22 08:43:32;;;;;;;206.55;104.10;;;;;;;9.48;100.00;96218.47;5021867;28;20431;-69
2023/10/22 08:45:58;;;;;;;90.53;44.50;;;;;;;9.59;100.00;96224.06;5030674;28;20087;-68
2023/10/22 08:48:26;;;;;;;45.00;25.30;;;;;;;10.22;100.00;96225.16;5017083;28;20363;-69
2023/10/22 08:50:52;;;;;;;16.75;9.80;;;;;;;10.83;100.00;96224.97;5004769;28;20046;-67
2023/10/22 08:53:18;;;;;;;11.68;7.05;;;;;;;11.77;100.00;96229.03;5015728;28;20445;-68
2023/10/22 08:55:45;;;;;;;9.95;7.82;;;;;;;13.15;100.00;96224.16;5022901;28;20049;-69
2023/10/22 08:58:16;;;;;;;6.18;3.55;;;;;;;14.45;100.00;96223.66;5016032;28;20112;-67
2023/10/22 09:00:48;;;;;;;3.88;2.25;;;;;;;15.82;100.00;96234.31;5022698;28;20049;-68
2023/10/22 09:03:14;;;;;;;4.97;1.88;;;;;;;16.88;100.00;96232.50;5014473;28;20064;-68
2023/10/22 09:05:40;;;;;;;6.95;2.10;;;;;;;17.57;97.43;96232.88;5022134;28;20147;-68
2023/10/22 09:08:05;;;;;;;4.50;1.30;;;;;;;18.56;91.41;96241.59;5016106;28;20492;-68
2023/10/22 09:10:31;;;;;;;4.57;1.23;;;;;;;18.82;81.83;96248.94;5029445;28;20528;-67
2023/10/22 09:13:23;;;;;;;3.75;1.30;;;;;;;20.22;74.88;96245.34;5021471;28;20046;-68
2023/10/22 09:15:50;;;;;;;4.00;1.40;;;;;;;21.02;66.65;96257.66;5016763;28;20042;-68
2023/10/22 09:18:17;;;;;;;3.60;1.20;;;;;;;20.54;68.62;96246.34;5009288;28;20044;-66
2023/10/22 09:20:44;;;;;;;4.55;1.90;;;;;;;20.14;67.64;96246.75;5021948;28;20043;-67
2023/10/22 09:23:20;;;;;;;7.97;1.30;;;;;;;21.26;61.90;96252.47;4999619;28;20064;-67
2023/10/22 09:25:48;;;;;;;2.97;1.10;;;;;;;20.95;61.57;96258.66;5025525;28;20092;-67
2023/10/22 09:28:34;;;;;;;3.65;1.25;;;;;;;21.76;59.78;96266.75;5023767;28;20120;-67
2023/10/22 09:31:01;;;;;;;2.45;1.15;;;;;;;20.31;62.06;96263.34;5021085;28;20072;-68
2023/10/22 09:33:41;;;;;;;3.53;1.25;;;;;;;21.69;56.90;96269.78;5015397;28;20049;-68
2023/10/22 09:36:11;;;;;;;3.00;1.00;;;;;;;20.94;61.26;96270.22;5015798;28;20073;-67
2023/10/22 09:38:50;;;;;;;2.35;0.90;;;;;;;21.11;59.46;96273.69;5021347;28;20143;-67
2023/10/22 09:41:30;;;;;;;0.85;0.63;;;;;;;21.72;58.86;96274.47;5007242;28;20064;-68
2023/10/22 09:44:02;;;;;;;4.38;1.20;;;;;;;22.49;52.26;96285.25;5028984;28;20075;-67
2023/10/22 09:46:33;;;;;;;3.78;2.10;;;;;;;22.81;50.89;96289.63;5018439;28;20045;-68
2023/10/22 09:49:00;;;;;;;2.85;0.90;;;;;;;22.22;53.04;96285.84;5020878;28;20064;-69
2023/10/22 09:51:34;;;;;;;2.40;0.80;;;;;;;22.71;52.00;96288.81;5016127;28;20136;-68
2023/10/22 09:54:05;;;;;;;2.97;0.80;;;;;;;21.78;54.79;96289.38;5021361;28;20084;-68
2023/10/22 09:56:32;;;;;;;2.28;0.80;;;;;;;20.87;54.72;96276.00;5010744;28;20043;-70
2023/10/22 09:59:07;;;;;;;2.22;0.73;;;;;;;20.05;55.83;96277.19;5008265;28;20046;-69
2023/10/22 10:01:34;;;;;;;2.22;0.60;;;;;;;20.24;55.47;96270.69;5021734;28;20052;-70
2023/10/22 10:04:01;;;;;;;3.28;0.80;;;;;;;19.84;58.33;96276.56;5020363;28;20128;-69
2023/10/22 10:06:27;;;;;;;3.08;0.70;;;;;;;19.40;60.66;96273.31;5015381;28;20103;-69
2023/10/22 10:08:53;;;;;;;2.63;0.75;;;;;;;19.74;58.83;96269.28;5038067;28;20064;-68
2023/10/22 10:11:19;;;;;;;5.32;0.90;;;;;;;19.28;63.10;96258.16;5016780;28;20052;-70
2023/10/22 10:13:45;;;;;;;2.83;0.68;;;;;;;19.86;59.03;96263.00;5022158;28;20050;-69
2023/10/22 10:16:10;;;;;;;1.67;0.50;;;;;;;20.32;56.29;96276.03;5006255;28;20042;-70
2023/10/22 10:19:04;;;;;;;3.50;1.08;;;;;;;20.82;55.54;96274.56;5021430;28;20046;-69
2023/10/22 10:21:38;;;;;;;3.67;0.80;;;;;;;20.37;55.81;96264.38;5003000;28;20041;-70
2023/10/22 10:24:24;;;;;;;2.53;0.80;;;;;;;20.91;55.37;96271.13;5015774;28;20076;-70
2023/10/22 10:26:59;;;;;;;3.03;0.70;;;;;;;20.35;53.64;96267.59;5004761;28;20049;-69
2023/10/22 10:29:30;;;;;;;12.00;0.82;;;;;;;20.69;53.25;96271.00;5014335;28;20516;-70
2023/10/22 10:32:15;;;;;;;4.18;0.70;;;;;;;20.10;54.80;96264.75;5020688;28;20045;-70
2023/10/22 10:34:48;;;;;;;1.52;0.60;;;;;;;19.65;55.10;96261.56;5003113;28;20041;-70
2023/10/22 10:37:21;;;;;;;1.45;0.57;;;;;;;19.76;54.69;96257.75;5019044;28;20041;-70
2023/10/22 10:39:52;;;;;;;6.78;1.00;;;;;;;19.39;54.92;96257.88;5025748;28;20030;-70
2023/10/22 10:42:29;;;;;;;4.22;1.10;;;;;;;19.17;54.56;96259.63;5011783;28;20112;-71
2023/10/22 10:44:58;;;;;;;4.00;1.08;;;;;;;19.28;55.72;96266.47;5024482;28;20061;-70
2023/10/22 10:47:27;;;;;;;1.98;0.82;;;;;;;19.54;54.76;96269.41;5027801;28;20037;-70
2023/10/22 10:50:03;;;;;;;3.70;0.65;;;;;;;19.50;54.34;96274.28;5033142;28;20119;-69
2023/10/22 10:52:31;;;;;;;2.85;0.85;;;;;;;19.89;54.02;96278.00;5024368;28;20069;-69
2023/10/22 10:55:09;;;;;;;4.50;0.90;;;;;;;19.32;54.78;96269.16;5007198;28;20041;-69
2023/10/22 10:57:39;;;;;;;3.47;0.90;;;;;;;19.08;57.41;96271.31;5031587;28;20107;-71
2023/10/22 11:00:06;;;;;;;3.00;0.70;;;;;;;19.47;56.48;96275.91;5002544;28;20045;-67
2023/10/22 11:02:42;;;;;;;0.95;0.57;;;;;;;18.74;56.78;96266.91;5006751;28;20220;-70
2023/10/22 11:05:09;;;;;;;2.25;0.90;;;;;;;19.29;57.37;96267.25;5019146;28;20072;-71
2023/10/22 11:07:35;;;;;;;5.32;1.10;;;;;;;19.23;56.45;96264.22;5006854;28;20057;-70
2023/10/22 11:10:14;;;;;;;2.38;0.50;;;;;;;19.35;54.23;96261.94;5025442;28;20183;-70
2023/10/22 11:12:40;;;;;;;2.17;0.80;;;;;;;19.92;53.43;96260.47;5024620;28;20045;-71
2023/10/22 11:15:08;;;;;;;4.13;0.73;;;;;;;20.10;52.39;96262.75;5020955;28;20049;-70
2023/10/22 11:17:34;;;;;;;2.88;0.80;;;;;;;19.54;52.82;96260.28;5022336;28;20124;-70
2023/10/22 11:19:59;;;;;;;3.08;0.70;;;;;;;19.80;53.53;96256.41;5024633;28;20125;-70
2023/10/22 11:22:26;;;;;;;3.42;0.90;;;;;;;19.99;50.83;96265.84;5002190;28;20389;-70
2023/10/22 11:24:52;;;;;;;2.88;0.90;;;;;;;19.92;51.33;96265.25;5023829;28;20065;-72
2023/10/22 11:27:19;;;;;;;3.78;1.38;;;;;;;20.41;49.75;96265.03;5018522;28;20493;-71
2023/10/22 11:29:49;;;;;;;3.10;0.75;;;;;;;20.72;50.29;96265.31;5024512;28;20044;-71